Pigeon, MI (48755)

4:35 AM EDT on July 28, 2014 (GMT -0400)
Sand Point (KMISANDP1) Elev 598 ft | 43.91 °N, 83.38 °W | Change Station
Active Advisory: Beach Hazard Statement Active Notice: Local Storm Report

Current weather conditions updated 32 seconds ago

Overcast
Overcast
63.2 °F
Feels Like 63.2 °F
N
17.0
Wind Variable Wind from NNE
Gusts 22.0 mph

Today is forecast to be Much Cooler than yesterday.

Today
High -- | Low -- °F
--% Chance of Precip.
Yesterday
High -- | Low -- °F
Precip. -- in
6:17 AM 9:01 PM
New Moon, 2% visible
Pressure 29.76 in
Visibility 10.0 miles
Clouds Mostly Cloudy 3300 ft
Overcast 6000 ft
Dew Point 59 °F
Humidity 85%
Rainfall 0.02 in
Snow Depth Not available.
UV 0.0 out of 12
Pollen 4.50 out of 12
Ozone Good
PM2.5 Good
Flu Activity Not available.
METAR KBAX 280817Z AUTO 02014G19KT 10SM BKN033 OVC060 16/14 A2976 RMK AO2 T01580136

More Conditions Fewer Conditions

Pressure 29.76 in
Visibility 10.0 miles
Clouds Mostly Cloudy 3300 ft
Overcast 6000 ft
Dew Point 59 °F
Humidity 85%
Rainfall 0.02 in
Snow Depth Not available.
UV 0.0 out of 12
Pollen 4.50 out of 12
Ozone Good
PM2.5 Good
Flu Activity Not available.
METAR KBAX 280817Z AUTO 02014G19KT 10SM BKN033 OVC060 16/14 A2976 RMK AO2 T01580136

More Conditions Fewer Conditions

10-Day Weather Forecast

Almanac

Astronomy

Jul. 28, 2014 Rise Set
Actual Time 6:17 AM EDT 9:01 PM EDT
Civil Twilight 5:44 AM EDT 9:34 PM EDT
Nautical Twilight 5:02 AM EDT 10:16 PM EDT
Astronomical Twilight 4:13 AM EDT 11:04 PM EDT
Moon 8:03 AM EDT 9:36 PM EDT
Length of Visible Light 15h 50m
Length of Day
14h 43m
Tomorrow will be 2m 11s shorter.
New Moon, 2% of the Moon is Illuminated
Today
New Moon
Aug 3
First Quarter
Aug 10
Full
Aug 17
Last Quarter
Aug 25
New

Today's Extremes

State Highs State Lows

Community

WunderPhotos

Upload Photos

1,738,294 photos uploaded!

Nearby

Air Quality

  Air Quality AQ Index Pollutant
Yesterday Moderate
PM2.5
Yesterday Good
OZONE
Current Good
OZONE
Current Good
PM2.5
Monday Good
OZONE
Monday Good
PM2.5
Tuesday Good
OZONE
Tuesday Good
PM2.5

Snow Depth

Station Depth Elevation
No new snow has been reported.

Earthquake Activity

City Distance Mag. Time & Date
No recent earthquake activity has been reported nearby.
Minimum magnitude displayed is 2.5.

Coastal Water Temperatures

Place Temperature
Harbor Beach, MI 69.1 °F

Nearby Weather Stations

Station Location Temp. Dew Point Humidity Wind Precip. Elev Updated Type
Sand Point, Sand Point, MI 63.2 °F 59 °F 85% NNE  at  17.0 mph 0.00 in / hr 598 ft 4:35 AM EDT Normal

Show More Stations Show Fewer Stations